Time;durP1;ratioP1;P1;durP2;ratioP2;P2;SDS_P1;SDS_P2;PMS_P1;PMS_P2;Temp;Humidity;BMP_temperature;BMP_pressure;BME280_temperature;BME280_humidity;BME280_pressure;Samples;Min_cycle;Max_cycle;Signal;HPM_P1;HPM_P2
2022/07/16 00:03:48;;;;;;;6.43;3.60;;;;;;;-142.91;100.00;56616.03;5007301;28;20256;-63
2022/07/16 00:06:15;;;;;;;9.02;4.18;;;;;;;-142.91;100.00;56616.03;5012499;28;20277;-63
2022/07/16 00:08:42;;;;;;;7.10;4.30;;;;;;;-142.91;100.00;56616.03;5010208;28;20223;-64
2022/07/16 00:11:09;;;;;;;6.75;4.10;;;;;;;-142.91;100.00;56616.03;5010352;28;20226;-65
2022/07/16 00:13:35;;;;;;;9.63;4.95;;;;;;;-142.91;100.00;56616.03;5009018;28;20331;-65
2022/07/16 00:16:02;;;;;;;13.98;5.82;;;;;;;-142.91;100.00;56616.03;5008865;28;20195;-65
2022/07/16 00:21:15;;;;;;;6.43;4.25;;;;;;;-142.91;100.00;56616.03;5005549;28;21323;-64
2022/07/16 00:23:42;;;;;;;13.90;4.45;;;;;;;-142.91;100.00;56616.03;5009619;28;21568;-64
2022/07/16 00:26:08;;;;;;;5.60;3.70;;;;;;;-142.91;100.00;56616.03;5008844;28;20215;-64
2022/07/16 00:28:35;;;;;;;7.90;4.90;;;;;;;-142.91;100.00;56616.03;5008071;28;20202;-64
2022/07/16 00:31:02;;;;;;;6.53;4.05;;;;;;;-142.91;100.00;56616.03;5008107;28;20207;-64
2022/07/16 00:33:29;;;;;;;8.35;4.70;;;;;;;-142.91;100.00;56616.03;5008337;28;20221;-64
2022/07/16 00:35:55;;;;;;;9.02;4.13;;;;;;;-142.91;100.00;56616.03;5010361;28;20723;-64
2022/07/16 00:38:24;;;;;;;7.40;3.95;;;;;;;-142.91;100.00;56616.03;5005361;28;20268;-64
2022/07/16 00:40:50;;;;;;;5.68;3.90;;;;;;;-142.91;100.00;56616.03;5007227;28;20202;-64
2022/07/16 00:43:17;;;;;;;4.90;4.47;;;;;;;-142.91;100.00;56616.03;5007929;28;20203;-65
2022/07/16 00:45:44;;;;;;;4.53;4.10;;;;;;;-142.91;100.00;56616.03;5010946;28;20211;-64
2022/07/16 00:48:11;;;;;;;6.15;4.75;;;;;;;-142.91;100.00;56616.03;5007189;28;20206;-65
2022/07/16 00:50:39;;;;;;;3.90;3.60;;;;;;;-142.91;100.00;56616.03;5008261;28;20900;-64
2022/07/16 00:53:09;;;;;;;4.28;3.88;;;;;;;-142.91;100.00;56616.03;5008971;28;20284;-64
2022/07/16 00:55:38;;;;;;;7.38;6.63;;;;;;;-142.91;100.00;56616.03;5004477;28;20574;-64
2022/07/16 00:58:06;;;;;;;5.25;4.78;;;;;;;-142.91;100.00;56616.03;5005249;28;20203;-65
2022/07/16 01:00:32;;;;;;;6.82;5.40;;;;;;;-142.91;100.00;56616.03;5007925;28;20727;-66
2022/07/16 01:03:01;;;;;;;9.60;4.70;;;;;;;-142.91;100.00;56616.03;5006719;28;20276;-65
2022/07/16 01:05:28;;;;;;;5.78;4.57;;;;;;;-142.91;100.00;56616.03;5009051;28;20211;-65
2022/07/16 01:07:56;;;;;;;5.28;3.72;;;;;;;-142.91;100.00;56616.03;5007658;28;20280;-63
2022/07/16 01:10:23;;;;;;;4.88;3.30;;;;;;;-142.91;100.00;56616.03;5004887;28;20303;-64
2022/07/16 01:12:52;;;;;;;5.25;3.85;;;;;;;-142.91;100.00;56616.03;5005121;28;20207;-65
2022/07/16 01:15:19;;;;;;;3.45;3.20;;;;;;;-142.91;100.00;56616.03;5009965;28;20308;-63
2022/07/16 01:17:46;;;;;;;3.83;3.15;;;;;;;-142.91;100.00;56616.03;5009416;28;20207;-63
2022/07/16 01:20:13;;;;;;;3.05;2.85;;;;;;;-142.91;100.00;56616.03;5007520;28;20218;-64
2022/07/16 01:22:39;;;;;;;3.65;3.35;;;;;;;-142.91;100.00;56616.03;5006878;28;20241;-64
2022/07/16 01:25:11;;;;;;;3.22;3.03;;;;;;;-142.91;100.00;56616.03;5007760;28;20610;-63
2022/07/16 01:27:39;;;;;;;3.28;3.08;;;;;;;-142.91;100.00;56616.03;5008599;28;20215;-65
2022/07/16 01:30:08;;;;;;;3.35;3.05;;;;;;;-142.91;100.00;56616.03;5008226;28;20477;-63
2022/07/16 01:32:35;;;;;;;11.18;3.90;;;;;;;-142.91;100.00;56616.03;5008428;28;22016;-65
2022/07/16 01:35:03;;;;;;;4.80;3.00;;;;;;;-142.91;100.00;56616.03;5006660;28;20210;-65
2022/07/16 01:37:30;;;;;;;2.90;2.70;;;;;;;-142.91;100.00;56616.03;5008490;28;20208;-64
2022/07/16 01:39:57;;;;;;;5.65;2.70;;;;;;;-142.91;100.00;56616.03;5007855;28;20219;-63
2022/07/16 01:42:25;;;;;;;4.22;3.47;;;;;;;-142.91;100.00;56616.03;5003664;28;20203;-63
2022/07/16 01:44:52;;;;;;;5.20;2.75;;;;;;;-142.91;100.00;56616.03;5000235;28;20214;-64
2022/07/16 01:47:19;;;;;;;2.92;2.83;;;;;;;-142.91;100.00;56616.03;5005755;28;20635;-64
2022/07/16 01:49:46;;;;;;;3.40;3.13;;;;;;;-142.91;100.00;56616.03;5007523;28;20217;-64
2022/07/16 01:52:16;;;;;;;4.50;3.10;;;;;;;-142.91;100.00;56616.03;5008559;28;20875;-64
2022/07/16 01:54:45;;;;;;;2.88;2.67;;;;;;;-142.91;100.00;56616.03;5006525;28;20210;-63
2022/07/16 01:57:12;;;;;;;4.00;2.85;;;;;;;-142.91;100.00;56616.03;5007087;28;20312;-65
2022/07/16 01:59:41;;;;;;;4.93;2.72;;;;;;;-142.91;100.00;56616.03;5007528;28;20388;-65
2022/07/16 02:02:08;;;;;;;2.40;2.20;;;;;;;-142.91;100.00;56616.03;5007385;28;20205;-64
2022/07/16 02:04:35;;;;;;;3.25;2.70;;;;;;;-142.91;100.00;56616.03;5005447;28;21883;-64
2022/07/16 02:07:02;;;;;;;3.28;2.65;;;;;;;-142.91;100.00;56616.03;5006698;28;20214;-64
2022/07/16 02:09:29;;;;;;;2.63;2.40;;;;;;;-142.91;100.00;56616.03;5006106;28;20242;-64
2022/07/16 02:11:55;;;;;;;6.18;2.78;;;;;;;-142.91;100.00;56616.03;5008870;28;20199;-66
2022/07/16 02:14:22;;;;;;;2.72;2.53;;;;;;;-142.91;100.00;56616.03;5005595;28;21474;-64
2022/07/16 02:16:51;;;;;;;2.33;2.13;;;;;;;-142.91;100.00;56616.03;5005187;28;20872;-64
2022/07/16 02:19:18;;;;;;;2.72;2.53;;;;;;;-142.91;100.00;56616.03;5006383;28;20245;-65
2022/07/16 02:21:44;;;;;;;2.67;2.47;;;;;;;-142.91;100.00;56616.03;5006456;28;20217;-65
2022/07/16 02:24:11;;;;;;;2.40;2.20;;;;;;;-142.91;100.00;56616.03;5005784;28;20211;-64
2022/07/16 02:26:38;;;;;;;2.30;2.20;;;;;;;-142.91;100.00;56616.03;5006067;28;20226;-64
2022/07/16 02:29:05;;;;;;;5.30;3.13;;;;;;;-142.91;100.00;56616.03;5006810;28;20280;-65
2022/07/16 02:31:32;;;;;;;3.45;3.15;;;;;;;-142.91;100.00;56616.03;5006810;28;20210;-63
2022/07/16 02:34:00;;;;;;;5.25;2.70;;;;;;;-142.91;100.00;56616.03;5008112;28;20203;-65
2022/07/16 02:36:26;;;;;;;3.33;2.67;;;;;;;-142.91;100.00;56616.03;5007628;28;20655;-64
2022/07/16 02:38:53;;;;;;;3.53;2.83;;;;;;;-142.91;100.00;56616.03;5007847;28;20450;-64
2022/07/16 02:41:20;;;;;;;3.53;2.70;;;;;;;-142.91;100.00;56616.03;5006567;28;20268;-65
2022/07/16 02:43:47;;;;;;;4.53;3.38;;;;;;;-142.91;100.00;56616.03;5006586;28;20225;-66
2022/07/16 02:46:14;;;;;;;4.00;3.40;;;;;;;-142.91;100.00;56616.03;5007116;28;20217;-65
2022/07/16 02:48:41;;;;;;;4.22;3.03;;;;;;;-142.91;100.00;56616.03;5008385;28;20744;-64
2022/07/16 02:51:09;;;;;;;2.83;2.58;;;;;;;-142.91;100.00;56616.03;5007377;28;20211;-65
2022/07/16 02:53:36;;;;;;;8.80;3.78;;;;;;;-142.91;100.00;56616.03;5006358;28;20203;-65
2022/07/16 02:56:03;;;;;;;2.97;2.65;;;;;;;-142.91;100.00;56616.03;5007728;28;20216;-65
2022/07/16 02:58:30;;;;;;;2.95;2.78;;;;;;;-142.91;100.00;56616.03;5007244;28;20650;-64
2022/07/16 03:00:57;;;;;;;3.20;3.00;;;;;;;-142.91;100.00;56616.03;5007013;28;20231;-64
2022/07/16 03:03:23;;;;;;;6.38;3.22;;;;;;;-142.91;100.00;56616.03;5006351;28;20199;-66
2022/07/16 03:05:50;;;;;;;3.42;3.22;;;;;;;-142.91;100.00;56616.03;5007670;28;20234;-65
2022/07/16 03:08:18;;;;;;;5.05;3.45;;;;;;;-142.91;100.00;56616.03;5007830;28;20268;-66
2022/07/16 03:10:45;;;;;;;2.85;2.58;;;;;;;-142.91;100.00;56616.03;5007618;28;20292;-65
2022/07/16 03:13:12;;;;;;;3.13;2.83;;;;;;;-142.91;100.00;56616.03;5006520;28;20696;-65
2022/07/16 03:15:39;;;;;;;2.97;2.78;;;;;;;-142.91;100.00;56616.03;5007171;28;20474;-65
2022/07/16 03:18:06;;;;;;;5.45;2.75;;;;;;;-142.91;100.00;56616.03;5007885;28;20249;-65
2022/07/16 03:20:32;;;;;;;8.15;3.58;;;;;;;-142.91;100.00;56616.03;5003967;28;20897;-65
2022/07/16 03:22:59;;;;;;;4.35;3.88;;;;;;;-142.91;100.00;56616.03;5007445;28;20207;-66
2022/07/16 03:25:27;;;;;;;7.47;3.10;;;;;;;-142.91;100.00;56616.03;5007184;28;20744;-65
2022/07/16 03:27:54;;;;;;;5.22;3.63;;;;;;;-142.91;100.00;56616.03;5006227;28;20684;-66
2022/07/16 03:30:21;;;;;;;7.32;4.22;;;;;;;-142.91;100.00;56616.03;5007020;28;20203;-65
2022/07/16 03:32:48;;;;;;;5.85;3.75;;;;;;;-142.91;100.00;56616.03;5007674;28;20207;-65
2022/07/16 03:35:15;;;;;;;6.63;3.40;;;;;;;-142.91;100.00;56616.03;5008279;28;20429;-65
2022/07/16 03:40:28;;;;;;;3.55;2.90;;;;;;;-142.91;100.00;56616.03;5010469;28;20726;-64
2022/07/16 03:42:55;;;;;;;7.07;3.33;;;;;;;-142.91;100.00;56616.03;5010864;28;20830;-64
2022/07/16 03:45:22;;;;;;;4.93;2.83;;;;;;;-142.91;100.00;56616.03;5011612;28;20207;-64
2022/07/16 03:47:49;;;;;;;3.03;2.70;;;;;;;-142.91;100.00;56616.03;5012056;28;20218;-64
2022/07/16 03:50:16;;;;;;;4.13;2.55;;;;;;;-142.91;100.00;56616.03;5010899;28;20260;-65
2022/07/16 03:52:43;;;;;;;6.43;2.85;;;;;;;-142.91;100.00;56616.03;5010731;28;20218;-65
2022/07/16 03:55:10;;;;;;;5.75;3.05;;;;;;;-142.91;100.00;56616.03;5011839;28;21090;-65
2022/07/16 03:57:38;;;;;;;5.65;2.95;;;;;;;-142.91;100.00;56616.03;5011080;28;20199;-65
2022/07/16 04:00:07;;;;;;;4.72;2.72;;;;;;;-142.91;100.00;56616.03;5012729;28;20253;-65
2022/07/16 04:02:33;;;;;;;6.45;3.30;;;;;;;-142.91;100.00;56616.03;5007244;28;21225;-66
2022/07/16 04:05:00;;;;;;;6.38;3.15;;;;;;;-142.91;100.00;56616.03;5010537;28;20312;-65
2022/07/16 04:07:27;;;;;;;7.15;4.10;;;;;;;-142.91;100.00;56616.03;5009485;28;20318;-66
2022/07/16 04:09:54;;;;;;;10.98;3.80;;;;;;;-142.91;100.00;56616.03;5008321;28;20242;-66
2022/07/16 04:12:22;;;;;;;8.75;4.28;;;;;;;-142.91;100.00;56616.03;5010187;28;20215;-66
2022/07/16 04:14:51;;;;;;;5.25;4.00;;;;;;;-142.91;100.00;56616.03;5010703;28;20256;-66
2022/07/16 04:17:18;;;;;;;4.75;2.75;;;;;;;-142.91;100.00;56616.03;5011363;28;20214;-66
2022/07/16 04:19:45;;;;;;;5.13;3.58;;;;;;;-142.91;100.00;56616.03;5008226;28;20227;-66
2022/07/16 04:22:12;;;;;;;4.43;4.05;;;;;;;-142.91;100.00;56616.03;5010313;28;20281;-66
2022/07/16 04:24:39;;;;;;;5.43;3.75;;;;;;;-142.91;100.00;56616.03;5012485;28;21623;-66
2022/07/16 04:27:05;;;;;;;5.25;3.30;;;;;;;-142.91;100.00;56616.03;5010551;28;21136;-66
2022/07/16 04:29:32;;;;;;;5.30;3.03;;;;;;;-142.91;100.00;56616.03;5009077;28;20276;-65
2022/07/16 04:32:00;;;;;;;6.10;3.35;;;;;;;-142.91;100.00;56616.03;5010063;28;20955;-66
2022/07/16 04:34:27;;;;;;;5.65;2.80;;;;;;;-142.91;100.00;56616.03;5010072;28;20566;-65
2022/07/16 04:36:54;;;;;;;7.70;3.40;;;;;;;-142.91;100.00;56616.03;5011533;28;20534;-64
2022/07/16 04:39:21;;;;;;;8.63;4.50;;;;;;;-142.91;100.00;56616.03;5007447;28;20214;-64
2022/07/16 04:41:48;;;;;;;5.60;3.97;;;;;;;-142.91;100.00;56616.03;5011284;28;20297;-65
2022/07/16 04:44:14;;;;;;;7.00;3.75;;;;;;;-142.91;100.00;56616.03;5011562;28;20214;-65
2022/07/16 04:46:41;;;;;;;6.70;3.78;;;;;;;-142.91;100.00;56616.03;5009339;28;20203;-65
2022/07/16 04:49:09;;;;;;;9.32;4.28;;;;;;;-142.91;100.00;56616.03;5008353;28;20214;-64
2022/07/16 04:51:36;;;;;;;8.80;3.85;;;;;;;-142.91;100.00;56616.03;5009849;28;20206;-65
2022/07/16 04:54:03;;;;;;;5.38;3.92;;;;;;;-142.91;100.00;56616.03;5010125;28;20207;-65
2022/07/16 04:56:29;;;;;;;5.78;3.45;;;;;;;-142.91;100.00;56616.03;5011746;28;20762;-65
2022/07/16 04:58:56;;;;;;;4.78;4.32;;;;;;;-142.91;100.00;56616.03;5009189;28;20211;-65
2022/07/16 05:01:23;;;;;;;5.72;4.72;;;;;;;-142.91;100.00;56616.03;5010376;28;20223;-65
2022/07/16 05:03:50;;;;;;;7.28;5.00;;;;;;;-142.91;100.00;56616.03;5009799;28;20742;-65
2022/07/16 05:06:18;;;;;;;4.88;3.72;;;;;;;-142.91;100.00;56616.03;5009743;28;20234;-65
2022/07/16 05:08:45;;;;;;;7.72;4.50;;;;;;;-142.91;100.00;56616.03;5009253;28;21700;-65
2022/07/16 05:11:11;;;;;;;10.85;3.85;;;;;;;-142.91;100.00;56616.03;5008026;28;20207;-65
2022/07/16 05:13:38;;;;;;;5.40;3.88;;;;;;;-142.91;100.00;56616.03;5009145;28;20292;-65
2022/07/16 05:16:05;;;;;;;11.32;8.68;;;;;;;-142.91;100.00;56616.03;5009137;28;20218;-64
2022/07/16 05:18:32;;;;;;;7.18;6.47;;;;;;;-142.91;100.00;56616.03;5009554;28;20203;-64
2022/07/16 05:20:59;;;;;;;8.90;5.88;;;;;;;-142.91;100.00;56616.03;5008168;28;20231;-65
2022/07/16 05:23:27;;;;;;;4.53;4.22;;;;;;;-142.91;100.00;56616.03;5009091;28;20199;-64
2022/07/16 05:25:53;;;;;;;4.13;3.63;;;;;;;-142.91;100.00;56616.03;5009722;28;20642;-63
2022/07/16 05:28:20;;;;;;;5.57;3.92;;;;;;;-142.91;100.00;56616.03;5009074;28;20253;-65
2022/07/16 05:30:47;;;;;;;9.30;4.82;;;;;;;-142.91;100.00;56616.03;5007527;28;20260;-65
2022/07/16 05:33:14;;;;;;;6.95;5.78;;;;;;;-142.91;100.00;56616.03;5007422;28;20210;-64
2022/07/16 05:35:40;;;;;;;7.20;3.85;;;;;;;-142.91;100.00;56616.03;5009858;28;20210;-65
2022/07/16 05:38:07;;;;;;;4.53;3.80;;;;;;;-142.91;100.00;56616.03;5009184;28;20199;-65
2022/07/16 05:40:36;;;;;;;5.95;3.60;;;;;;;-142.91;100.00;56616.03;5010003;28;20552;-65
2022/07/16 05:43:02;;;;;;;7.70;3.75;;;;;;;-142.91;100.00;56616.03;5009417;28;20892;-65
2022/07/16 05:45:29;;;;;;;5.63;3.58;;;;;;;-142.91;100.00;56616.03;5009051;28;20206;-65
2022/07/16 05:47:56;;;;;;;5.22;3.83;;;;;;;-142.91;100.00;56616.03;5009071;28;20211;-64
2022/07/16 05:50:23;;;;;;;7.15;3.70;;;;;;;-142.91;100.00;56616.03;5007212;28;20207;-65
2022/07/16 05:52:50;;;;;;;7.63;5.97;;;;;;;-142.91;100.00;56616.03;5008436;28;20649;-65
2022/07/16 05:55:17;;;;;;;11.13;7.72;;;;;;;-142.91;100.00;56616.03;5008855;28;20210;-66
2022/07/16 05:57:45;;;;;;;9.45;8.55;;;;;;;-142.91;100.00;56616.03;5009290;28;20210;-65
2022/07/16 06:00:13;;;;;;;11.10;7.78;;;;;;;-142.91;100.00;56616.03;5007284;28;20231;-66
2022/07/16 06:02:40;;;;;;;7.10;5.18;;;;;;;-142.91;100.00;56616.03;5009672;28;20203;-65
2022/07/16 06:05:08;;;;;;;12.80;11.57;;;;;;;-142.91;100.00;56616.03;5008322;28;20227;-65
2022/07/16 06:07:35;;;;;;;13.93;8.48;;;;;;;-142.91;100.00;56616.03;5009066;28;20209;-65
2022/07/16 06:10:02;;;;;;;14.10;11.40;;;;;;;-142.91;100.00;56616.03;5007742;28;20993;-64
2022/07/16 06:12:29;;;;;;;8.93;5.43;;;;;;;-142.91;100.00;56616.03;5008070;28;20649;-65
2022/07/16 06:14:57;;;;;;;8.32;5.53;;;;;;;-142.91;100.00;56616.03;5008681;28;20249;-65
2022/07/16 06:17:26;;;;;;;4.70;4.15;;;;;;;-142.91;100.00;56616.03;5008258;28;20300;-65
2022/07/16 06:19:53;;;;;;;6.47;5.85;;;;;;;-142.91;100.00;56616.03;5006169;28;20202;-66
2022/07/16 06:22:20;;;;;;;17.00;14.18;;;;;;;-142.91;100.00;56616.03;5007865;28;20276;-66
2022/07/16 06:24:47;;;;;;;6.72;4.65;;;;;;;-142.91;100.00;56616.03;5008020;28;20674;-66
2022/07/16 06:27:13;;;;;;;5.40;3.70;;;;;;;-142.91;100.00;56616.03;5007814;28;20215;-67
2022/07/16 06:29:40;;;;;;;4.82;3.88;;;;;;;-142.91;100.00;56616.03;5008235;28;20206;-66
2022/07/16 06:32:08;;;;;;;4.15;3.83;;;;;;;-142.91;100.00;56616.03;5009446;28;20279;-64
2022/07/16 06:34:35;;;;;;;4.72;3.95;;;;;;;-142.91;100.00;56616.03;5008771;28;20296;-65
2022/07/16 06:37:02;;;;;;;5.75;4.18;;;;;;;-142.91;100.00;56616.03;5009353;28;20214;-65
2022/07/16 06:39:29;;;;;;;8.20;3.53;;;;;;;-142.91;100.00;56616.03;5006361;28;20332;-65
2022/07/16 06:41:56;;;;;;;5.50;4.80;;;;;;;-142.91;100.00;56616.03;5008073;28;20230;-64
2022/07/16 06:44:22;;;;;;;4.72;3.92;;;;;;;-142.91;100.00;56616.03;5007850;28;20203;-65
2022/07/16 06:46:49;;;;;;;5.03;4.20;;;;;;;-142.91;100.00;56616.03;5009192;28;20209;-66
2022/07/16 06:49:17;;;;;;;4.95;3.58;;;;;;;-142.91;100.00;56616.03;5007118;28;20215;-63
2022/07/16 06:51:44;;;;;;;6.90;4.25;;;;;;;-142.91;100.00;56616.03;5007739;28;20214;-66
2022/07/16 06:54:11;;;;;;;5.85;4.45;;;;;;;-142.91;100.00;56616.03;5009732;28;20207;-66
2022/07/16 06:56:38;;;;;;;3.40;3.15;;;;;;;-142.91;100.00;56616.03;5009779;28;20332;-65
2022/07/16 06:59:05;;;;;;;3.97;3.60;;;;;;;-142.91;100.00;56616.03;5008335;28;20207;-66
2022/07/16 07:01:31;;;;;;;4.90;3.15;;;;;;;-142.91;100.00;56616.03;5007202;28;20238;-65
2022/07/16 07:03:58;;;;;;;4.30;3.30;;;;;;;-142.91;100.00;56616.03;5007821;28;20207;-66
2022/07/16 07:06:26;;;;;;;6.40;4.05;;;;;;;-142.91;100.00;56616.03;5007808;28;20248;-67
2022/07/16 07:08:53;;;;;;;9.50;3.95;;;;;;;-142.91;100.00;56616.03;5007588;28;20235;-65
2022/07/16 07:11:20;;;;;;;4.57;4.13;;;;;;;-142.91;100.00;56616.03;5008917;28;20278;-64
2022/07/16 07:13:48;;;;;;;3.88;3.38;;;;;;;-142.91;100.00;56616.03;5012550;28;20214;-64
2022/07/16 07:16:15;;;;;;;3.60;3.33;;;;;;;-142.91;100.00;56616.03;5011202;28;20221;-64
2022/07/16 07:18:41;;;;;;;11.38;5.05;;;;;;;-142.91;100.00;56616.03;5011395;28;20203;-65
2022/07/16 07:21:08;;;;;;;6.03;5.43;;;;;;;-142.91;100.00;56616.03;5010042;28;20644;-64
2022/07/16 07:23:37;;;;;;;7.80;5.88;;;;;;;-142.91;100.00;56616.03;5012225;28;20207;-64
2022/07/16 07:26:03;;;;;;;6.72;5.93;;;;;;;-142.91;100.00;56616.03;5010638;28;20723;-64
2022/07/16 07:28:30;;;;;;;9.15;8.20;;;;;;;-142.91;100.00;56616.03;5011553;28;20856;-67
2022/07/16 07:30:57;;;;;;;7.65;3.53;;;;;;;-142.91;100.00;56616.03;5009316;28;20210;-64
2022/07/16 07:33:24;;;;;;;3.42;3.13;;;;;;;-142.91;100.00;56616.03;5011596;28;20218;-66
2022/07/16 07:35:51;;;;;;;6.18;2.95;;;;;;;-142.91;100.00;56616.03;5012117;28;20277;-66
2022/07/16 07:38:18;;;;;;;5.28;3.55;;;;;;;-142.91;100.00;56616.03;5010416;28;20284;-64
2022/07/16 07:40:47;;;;;;;7.18;3.05;;;;;;;-142.91;100.00;56616.03;5009606;28;20277;-64
2022/07/16 07:43:14;;;;;;;5.78;3.42;;;;;;;-142.91;100.00;56616.03;5012722;28;20228;-65
2022/07/16 07:45:41;;;;;;;6.82;2.58;;;;;;;-142.91;100.00;56616.03;5010682;28;20292;-65
2022/07/16 07:48:08;;;;;;;11.48;4.20;;;;;;;-142.91;100.00;56616.03;5012003;28;20203;-64
2022/07/16 07:50:34;;;;;;;4.20;3.90;;;;;;;-142.91;100.00;56616.03;5010907;28;20206;-65
2022/07/16 07:53:01;;;;;;;10.73;5.50;;;;;;;-142.91;100.00;56616.03;5011635;28;20207;-64
2022/07/16 07:55:28;;;;;;;4.63;3.88;;;;;;;-142.91;100.00;56616.03;5012596;28;20223;-64
2022/07/16 07:57:56;;;;;;;2.70;2.58;;;;;;;-142.91;100.00;56616.03;5012164;28;20207;-65
2022/07/16 08:00:24;;;;;;;3.53;3.13;;;;;;;-142.91;100.00;56616.03;5009686;28;20655;-66
2022/07/16 08:02:50;;;;;;;5.78;3.00;;;;;;;-142.91;100.00;56616.03;5011211;28;20309;-66
2022/07/16 08:05:17;;;;;;;7.65;3.00;;;;;;;-142.91;100.00;56616.03;5011993;28;20308;-66
2022/07/16 08:07:45;;;;;;;5.55;2.70;;;;;;;-142.91;100.00;56616.03;5010764;28;20211;-66
2022/07/16 08:10:12;;;;;;;4.00;3.00;;;;;;;-142.91;100.00;56616.03;5010614;28;20239;-66
2022/07/16 08:12:40;;;;;;;8.73;4.00;;;;;;;-142.91;100.00;56616.03;5010313;28;20210;-66
2022/07/16 08:15:10;;;;;;;5.40;3.55;;;;;;;-142.91;100.00;56616.03;5010830;28;20349;-66
2022/07/16 08:17:37;;;;;;;6.00;3.53;;;;;;;-142.91;100.00;56616.03;5009732;28;20645;-66
2022/07/16 08:20:04;;;;;;;8.05;6.93;;;;;;;-142.91;100.00;56616.03;5010341;28;20272;-65
2022/07/16 08:22:31;;;;;;;3.40;2.75;;;;;;;-142.91;100.00;56616.03;5010299;28;20573;-63
2022/07/16 08:27:42;;;;;;;3.92;3.50;;;;;;;-142.91;100.00;56616.03;5009871;28;20222;-66
2022/07/16 08:30:11;;;;;;;18.58;12.48;;;;;;;-142.91;100.00;56616.03;5009725;28;20207;-65
2022/07/16 08:32:37;;;;;;;60.65;40.90;;;;;;;-142.91;100.00;56616.03;5010668;28;20199;-65
2022/07/16 08:35:05;;;;;;;31.77;22.45;;;;;;;-142.91;100.00;56616.03;5012024;28;20966;-66
2022/07/16 08:37:35;;;;;;;22.55;16.83;;;;;;;-142.91;100.00;56616.03;5010180;28;20207;-65
2022/07/16 08:40:04;;;;;;;10.32;7.95;;;;;;;-142.91;100.00;56616.03;5008540;28;20206;-64
2022/07/16 08:42:33;;;;;;;9.35;6.07;;;;;;;-142.91;100.00;56616.03;5009986;28;20221;-65
2022/07/16 08:45:00;;;;;;;11.32;6.20;;;;;;;-142.91;100.00;56616.03;5010700;28;20207;-65
2022/07/16 08:47:30;;;;;;;7.80;5.50;;;;;;;-142.91;100.00;56616.03;5009705;28;20206;-65
2022/07/16 08:49:59;;;;;;;10.25;3.42;;;;;;;-142.91;100.00;56616.03;5009935;28;20684;-64
2022/07/16 08:52:28;;;;;;;6.35;3.38;;;;;;;-142.91;100.00;56616.03;5010744;28;20202;-65
2022/07/16 08:54:56;;;;;;;7.15;3.65;;;;;;;-142.91;100.00;56616.03;5009252;28;20592;-64
2022/07/16 08:57:24;;;;;;;4.15;3.25;;;;;;;-142.91;100.00;56616.03;5010640;28;20237;-64
2022/07/16 08:59:52;;;;;;;3.45;3.00;;;;;;;-142.91;100.00;56616.03;5010251;28;20917;-65
2022/07/16 09:02:19;;;;;;;3.38;2.88;;;;;;;-142.91;100.00;56616.03;5009757;28;20238;-66
2022/07/16 09:04:48;;;;;;;4.65;4.35;;;;;;;-142.91;100.00;56616.03;5010612;28;20318;-66
2022/07/16 09:07:15;;;;;;;6.32;5.80;;;;;;;-142.91;100.00;56616.03;5010445;28;20811;-65
2022/07/16 09:09:44;;;;;;;2.75;2.58;;;;;;;-142.91;100.00;56616.03;5009311;28;20296;-67
2022/07/16 09:12:11;;;;;;;3.10;2.90;;;;;;;-142.91;100.00;56616.03;5008949;28;20301;-65
2022/07/16 09:14:38;;;;;;;15.20;3.92;;;;;;;-142.91;100.00;56616.03;5011651;28;20210;-65
2022/07/16 09:17:05;;;;;;;4.95;3.47;;;;;;;-142.91;100.00;56616.03;5008882;28;20217;-64
2022/07/16 09:19:32;;;;;;;5.75;2.67;;;;;;;-142.91;100.00;56616.03;5008850;28;20325;-64
2022/07/16 09:22:03;;;;;;;5.25;2.67;;;;;;;-142.91;100.00;56616.03;5009550;28;20301;-64
2022/07/16 09:24:36;;;;;;;6.05;3.05;;;;;;;-142.91;100.00;56616.03;5009182;28;20213;-64
2022/07/16 09:27:05;;;;;;;6.97;3.08;;;;;;;-142.91;100.00;56616.03;5009267;28;20206;-65
2022/07/16 09:29:35;;;;;;;4.63;2.83;;;;;;;-142.91;100.00;56616.03;5008755;28;20744;-66
2022/07/16 09:32:02;;;;;;;3.63;2.75;;;;;;;-142.91;100.00;56616.03;5008227;28;20202;-65
2022/07/16 09:34:30;;;;;;;3.90;2.97;;;;;;;-142.91;100.00;56616.03;5009558;28;20577;-66
2022/07/16 09:36:59;;;;;;;9.23;3.08;;;;;;;-142.91;100.00;56616.03;5010062;28;20716;-65
2022/07/16 09:39:27;;;;;;;30.48;24.95;;;;;;;-142.91;100.00;56616.03;5007076;28;21760;-65
2022/07/16 09:41:54;;;;;;;7.55;6.75;;;;;;;-142.91;100.00;56616.03;5009409;28;20230;-65
2022/07/16 09:44:23;;;;;;;20.20;16.58;;;;;;;-142.91;100.00;56616.03;5009116;28;20203;-66
2022/07/16 09:47:02;;;;;;;17.67;13.98;;;;;;;-142.91;100.00;56616.03;5008087;28;20218;-65
2022/07/16 09:49:31;;;;;;;16.65;14.07;;;;;;;-142.91;100.00;56616.03;5009619;28;20202;-66
2022/07/16 09:51:57;;;;;;;9.98;9.13;;;;;;;-142.91;100.00;56616.03;5008878;28;20700;-66
2022/07/16 09:54:32;;;;;;;7.78;6.68;;;;;;;-142.91;100.00;56616.03;5009516;28;20668;-65
2022/07/16 09:57:11;;;;;;;11.45;5.18;;;;;;;-142.91;100.00;56616.03;5009777;28;22107;-66
2022/07/16 09:59:39;;;;;;;5.20;4.78;;;;;;;-142.91;100.00;56616.03;5008747;28;20214;-64
2022/07/16 10:02:06;;;;;;;15.35;9.68;;;;;;;-142.91;100.00;56616.03;5008782;28;20230;-65
2022/07/16 10:04:33;;;;;;;28.92;18.63;;;;;;;-142.91;100.00;56616.03;5009466;28;20235;-65
2022/07/16 10:07:00;;;;;;;21.10;15.20;;;;;;;-142.91;100.00;56616.03;5008023;28;20210;-65
2022/07/16 10:09:29;;;;;;;58.08;35.80;;;;;;;-142.91;100.00;56616.03;5007884;28;20245;-64
2022/07/16 10:11:58;;;;;;;14.52;9.98;;;;;;;-142.91;100.00;56616.03;5009003;28;21886;-64
2022/07/16 10:14:26;;;;;;;7.10;4.93;;;;;;;-142.91;100.00;56616.03;5008165;28;20206;-65
2022/07/16 10:16:59;;;;;;;5.75;5.25;;;;;;;-142.91;100.00;56616.03;5007591;28;20234;-65
2022/07/16 10:19:34;;;;;;;12.07;10.77;;;;;;;-142.91;100.00;56616.03;5005815;28;22762;-66
2022/07/16 10:22:22;;;;;;;3.15;2.83;;;;;;;-142.91;100.00;56616.03;5007759;28;20222;-71
2022/07/16 10:24:54;;;;;;;4.45;3.30;;;;;;;-142.91;100.00;56616.03;5006966;28;20288;-71
2022/07/16 10:27:27;;;;;;;8.43;5.20;;;;;;;-142.91;100.00;56616.03;5005438;28;20207;-71
2022/07/16 10:30:13;;;;;;;4.80;3.90;;;;;;;-142.91;100.00;56616.03;5007533;28;20203;-72
2022/07/16 10:33:17;;;;;;;4.47;3.60;;;;;;;-142.91;100.00;56616.03;5004624;28;20226;-72
2022/07/16 10:35:47;;;;;;;10.00;8.63;;;;;;;-142.91;100.00;56616.03;5007021;28;20214;-71
2022/07/16 10:38:18;;;;;;;5.50;3.22;;;;;;;-142.91;100.00;56616.03;5007887;28;20236;-70
2022/07/16 10:40:47;;;;;;;10.90;3.90;;;;;;;-142.91;100.00;56616.03;5008384;28;20218;-70
2022/07/16 10:43:17;;;;;;;2.95;2.75;;;;;;;-142.91;100.00;56616.03;5008309;28;20260;-71
2022/07/16 10:45:54;;;;;;;3.25;3.00;;;;;;;-142.91;100.00;56616.03;5008423;28;20203;-72
2022/07/16 10:48:21;;;;;;;10.25;3.28;;;;;;;-142.91;100.00;56616.03;5008612;28;20261;-71
2022/07/16 10:51:10;;;;;;;3.15;2.95;;;;;;;-142.91;100.00;56616.03;5007825;28;20669;-71
2022/07/16 10:54:30;;;;;;;9.98;8.65;;;;;;;-142.91;100.00;56616.03;5008779;28;20893;-71
2022/07/16 10:57:00;;;;;;;18.15;12.60;;;;;;;-142.91;100.00;56616.03;4943579;28;20234;-71
2022/07/16 10:59:30;;;;;;;24.38;17.10;;;;;;;-142.91;100.00;56616.03;4941527;28;20280;-70
2022/07/16 11:01:58;;;;;;;26.92;21.30;;;;;;;-142.91;100.00;56616.03;4982674;28;20234;-70
2022/07/16 11:04:31;;;;;;;24.17;20.95;;;;;;;-142.91;100.00;56616.03;5008298;28;20625;-71
2022/07/16 11:06:59;;;;;;;31.73;25.35;;;;;;;-142.91;100.00;56616.03;5010274;28;20207;-70
2022/07/16 11:09:28;;;;;;;40.45;31.77;;;;;;;-142.91;100.00;56616.03;5007607;28;20239;-70
2022/07/16 11:11:55;;;;;;;59.72;42.35;;;;;;;-142.91;100.00;56616.03;5009451;28;20296;-70
2022/07/16 11:14:30;;;;;;;14.40;12.35;;;;;;;-142.91;100.00;56616.03;5008959;28;20211;-71
2022/07/16 11:16:57;;;;;;;11.57;10.27;;;;;;;-142.91;100.00;56616.03;5008522;28;20293;-71
2022/07/16 11:19:25;;;;;;;7.57;6.75;;;;;;;-142.91;100.00;56616.03;5007676;28;20314;-71
2022/07/16 11:21:57;;;;;;;7.57;6.78;;;;;;;-142.91;100.00;56616.03;5008121;28;20227;-71